sensor_id;sensor_type;location;lat;lon;timestamp;P1;durP1;ratioP1;P2;durP2;ratioP2
50547;SDS011;38013;48.810;8.818;2022-11-20T00:01:07;4.70;;;2.20;;
50547;SDS011;38013;48.810;8.818;2022-11-20T00:03:36;3.97;;;1.50;;
50547;SDS011;38013;48.810;8.818;2022-11-20T00:06:02;4.30;;;1.70;;
50547;SDS011;38013;48.810;8.818;2022-11-20T00:08:30;3.60;;;1.40;;
50547;SDS011;38013;48.810;8.818;2022-11-20T00:10:56;4.47;;;2.13;;
50547;SDS011;38013;48.810;8.818;2022-11-20T00:13:22;2.85;;;1.52;;
50547;SDS011;38013;48.810;8.818;2022-11-20T00:15:48;3.28;;;1.70;;
50547;SDS011;38013;48.810;8.818;2022-11-20T00:18:21;3.63;;;1.60;;
50547;SDS011;38013;48.810;8.818;2022-11-20T00:20:47;4.60;;;1.75;;
50547;SDS011;38013;48.810;8.818;2022-11-20T00:23:13;3.53;;;1.60;;
50547;SDS011;38013;48.810;8.818;2022-11-20T00:25:39;3.75;;;1.60;;
50547;SDS011;38013;48.810;8.818;2022-11-20T00:28:05;2.60;;;1.33;;
50547;SDS011;38013;48.810;8.818;2022-11-20T00:30:30;3.60;;;1.85;;
50547;SDS011;38013;48.810;8.818;2022-11-20T00:32:56;3.55;;;1.60;;
50547;SDS011;38013;48.810;8.818;2022-11-20T00:35:22;3.50;;;1.60;;
50547;SDS011;38013;48.810;8.818;2022-11-20T00:37:48;3.40;;;1.50;;
50547;SDS011;38013;48.810;8.818;2022-11-20T00:40:14;3.70;;;1.42;;
50547;SDS011;38013;48.810;8.818;2022-11-20T00:42:40;3.35;;;1.58;;
50547;SDS011;38013;48.810;8.818;2022-11-20T00:45:06;4.70;;;1.50;;
50547;SDS011;38013;48.810;8.818;2022-11-20T00:47:32;3.28;;;1.42;;
50547;SDS011;38013;48.810;8.818;2022-11-20T00:49:57;2.70;;;1.23;;
50547;SDS011;38013;48.810;8.818;2022-11-20T00:52:23;2.67;;;1.45;;
50547;SDS011;38013;48.810;8.818;2022-11-20T00:54:49;2.92;;;1.33;;
50547;SDS011;38013;48.810;8.818;2022-11-20T00:57:15;3.10;;;1.40;;
50547;SDS011;38013;48.810;8.818;2022-11-20T00:59:40;4.28;;;1.50;;
50547;SDS011;38013;48.810;8.818;2022-11-20T01:02:06;6.43;;;1.60;;
50547;SDS011;38013;48.810;8.818;2022-11-20T01:04:32;4.00;;;1.50;;
50547;SDS011;38013;48.810;8.818;2022-11-20T01:06:58;2.92;;;1.35;;
50547;SDS011;38013;48.810;8.818;2022-11-20T01:09:23;3.65;;;1.30;;
50547;SDS011;38013;48.810;8.818;2022-11-20T01:11:49;4.32;;;1.30;;
50547;SDS011;38013;48.810;8.818;2022-11-20T01:14:16;3.72;;;1.63;;
50547;SDS011;38013;48.810;8.818;2022-11-20T01:16:45;3.37;;;1.40;;
50547;SDS011;38013;48.810;8.818;2022-11-20T01:19:16;3.65;;;1.30;;
50547;SDS011;38013;48.810;8.818;2022-11-20T01:21:46;2.28;;;1.10;;
50547;SDS011;38013;48.810;8.818;2022-11-20T01:24:16;2.40;;;1.25;;
50547;SDS011;38013;48.810;8.818;2022-11-20T01:26:45;2.78;;;1.05;;
50547;SDS011;38013;48.810;8.818;2022-11-20T01:29:15;3.08;;;1.15;;
50547;SDS011;38013;48.810;8.818;2022-11-20T01:31:49;2.40;;;1.30;;
50547;SDS011;38013;48.810;8.818;2022-11-20T01:34:17;3.05;;;1.40;;
50547;SDS011;38013;48.810;8.818;2022-11-20T01:36:44;2.65;;;1.20;;
50547;SDS011;38013;48.810;8.818;2022-11-20T01:39:18;3.72;;;1.40;;
50547;SDS011;38013;48.810;8.818;2022-11-20T01:41:50;2.97;;;1.58;;
50547;SDS011;38013;48.810;8.818;2022-11-20T01:49:58;3.60;;;1.15;;
50547;SDS011;38013;48.810;8.818;2022-11-20T01:52:42;2.72;;;1.13;;
50547;SDS011;38013;48.810;8.818;2022-11-20T01:55:19;2.35;;;1.20;;
50547;SDS011;38013;48.810;8.818;2022-11-20T01:57:50;2.63;;;1.23;;
50547;SDS011;38013;48.810;8.818;2022-11-20T02:00:17;3.15;;;1.45;;
50547;SDS011;38013;48.810;8.818;2022-11-20T02:02:50;2.85;;;1.27;;
50547;SDS011;38013;48.810;8.818;2022-11-20T02:05:31;2.60;;;1.20;;
50547;SDS011;38013;48.810;8.818;2022-11-20T02:08:04;5.85;;;2.30;;
50547;SDS011;38013;48.810;8.818;2022-11-20T02:10:31;6.30;;;1.30;;
50547;SDS011;38013;48.810;8.818;2022-11-20T02:12:57;3.55;;;1.30;;
50547;SDS011;38013;48.810;8.818;2022-11-20T02:15:42;3.47;;;1.35;;
50547;SDS011;38013;48.810;8.818;2022-11-20T02:18:09;2.95;;;1.30;;
50547;SDS011;38013;48.810;8.818;2022-11-20T02:20:36;3.95;;;1.40;;
50547;SDS011;38013;48.810;8.818;2022-11-20T02:25:34;2.60;;;1.45;;
50547;SDS011;38013;48.810;8.818;2022-11-20T02:28:02;4.28;;;1.80;;
50547;SDS011;38013;48.810;8.818;2022-11-20T02:30:28;3.17;;;1.55;;
50547;SDS011;38013;48.810;8.818;2022-11-20T02:32:54;3.45;;;1.55;;
50547;SDS011;38013;48.810;8.818;2022-11-20T02:37:48;3.45;;;1.38;;
50547;SDS011;38013;48.810;8.818;2022-11-20T02:40:19;3.13;;;1.20;;
50547;SDS011;38013;48.810;8.818;2022-11-20T02:42:45;2.83;;;1.40;;
50547;SDS011;38013;48.810;8.818;2022-11-20T02:45:11;2.67;;;1.23;;
50547;SDS011;38013;48.810;8.818;2022-11-20T02:47:37;3.05;;;1.27;;
50547;SDS011;38013;48.810;8.818;2022-11-20T02:50:03;3.42;;;1.30;;
50547;SDS011;38013;48.810;8.818;2022-11-20T02:52:30;3.35;;;1.48;;
50547;SDS011;38013;48.810;8.818;2022-11-20T02:54:56;2.92;;;1.40;;
50547;SDS011;38013;48.810;8.818;2022-11-20T02:57:22;2.88;;;1.08;;
50547;SDS011;38013;48.810;8.818;2022-11-20T02:59:48;2.95;;;1.40;;
50547;SDS011;38013;48.810;8.818;2022-11-20T03:02:13;3.92;;;1.20;;
50547;SDS011;38013;48.810;8.818;2022-11-20T03:04:39;3.58;;;1.15;;
50547;SDS011;38013;48.810;8.818;2022-11-20T03:07:05;3.63;;;1.63;;
50547;SDS011;38013;48.810;8.818;2022-11-20T03:09:31;4.45;;;1.48;;
50547;SDS011;38013;48.810;8.818;2022-11-20T03:11:56;2.75;;;1.48;;
50547;SDS011;38013;48.810;8.818;2022-11-20T03:14:22;3.13;;;1.38;;
50547;SDS011;38013;48.810;8.818;2022-11-20T03:16:48;3.92;;;1.50;;
50547;SDS011;38013;48.810;8.818;2022-11-20T03:19:13;2.45;;;1.33;;
50547;SDS011;38013;48.810;8.818;2022-11-20T03:21:39;1.85;;;1.10;;
50547;SDS011;38013;48.810;8.818;2022-11-20T03:24:05;2.80;;;1.40;;
50547;SDS011;38013;48.810;8.818;2022-11-20T03:26:32;2.90;;;1.35;;
50547;SDS011;38013;48.810;8.818;2022-11-20T03:28:59;2.70;;;1.20;;
50547;SDS011;38013;48.810;8.818;2022-11-20T03:31:34;2.42;;;1.30;;
50547;SDS011;38013;48.810;8.818;2022-11-20T03:34:05;3.08;;;1.70;;
50547;SDS011;38013;48.810;8.818;2022-11-20T03:36:31;3.97;;;1.60;;
50547;SDS011;38013;48.810;8.818;2022-11-20T03:38:58;3.53;;;1.40;;
50547;SDS011;38013;48.810;8.818;2022-11-20T03:41:25;4.93;;;1.60;;
50547;SDS011;38013;48.810;8.818;2022-11-20T03:43:58;2.60;;;1.40;;
50547;SDS011;38013;48.810;8.818;2022-11-20T03:46:26;2.53;;;1.20;;
50547;SDS011;38013;48.810;8.818;2022-11-20T03:48:52;5.97;;;1.40;;
50547;SDS011;38013;48.810;8.818;2022-11-20T03:51:22;2.75;;;1.40;;
50547;SDS011;38013;48.810;8.818;2022-11-20T03:53:54;3.28;;;1.40;;
50547;SDS011;38013;48.810;8.818;2022-11-20T03:56:23;3.35;;;1.60;;
50547;SDS011;38013;48.810;8.818;2022-11-20T03:58:55;3.70;;;1.70;;
50547;SDS011;38013;48.810;8.818;2022-11-20T04:01:22;2.92;;;1.63;;
50547;SDS011;38013;48.810;8.818;2022-11-20T04:03:55;2.60;;;1.30;;
50547;SDS011;38013;48.810;8.818;2022-11-20T04:06:23;4.38;;;1.63;;
50547;SDS011;38013;48.810;8.818;2022-11-20T04:08:55;3.97;;;1.77;;
50547;SDS011;38013;48.810;8.818;2022-11-20T04:11:26;3.58;;;1.25;;
50547;SDS011;38013;48.810;8.818;2022-11-20T04:13:55;2.47;;;1.30;;
50547;SDS011;38013;48.810;8.818;2022-11-20T04:16:29;4.20;;;1.50;;
50547;SDS011;38013;48.810;8.818;2022-11-20T04:18:58;3.15;;;1.40;;
50547;SDS011;38013;48.810;8.818;2022-11-20T04:21:26;3.33;;;1.40;;
50547;SDS011;38013;48.810;8.818;2022-11-20T04:23:52;2.85;;;1.17;;
50547;SDS011;38013;48.810;8.818;2022-11-20T04:26:19;3.35;;;1.30;;
50547;SDS011;38013;48.810;8.818;2022-11-20T04:28:47;2.08;;;1.10;;
50547;SDS011;38013;48.810;8.818;2022-11-20T04:31:14;1.98;;;1.15;;
50547;SDS011;38013;48.810;8.818;2022-11-20T04:33:42;3.00;;;1.20;;
50547;SDS011;38013;48.810;8.818;2022-11-20T04:36:12;2.67;;;1.35;;
50547;SDS011;38013;48.810;8.818;2022-11-20T04:38:41;3.20;;;1.23;;
50547;SDS011;38013;48.810;8.818;2022-11-20T04:41:08;2.72;;;1.05;;
50547;SDS011;38013;48.810;8.818;2022-11-20T04:43:40;2.25;;;1.20;;
50547;SDS011;38013;48.810;8.818;2022-11-20T04:46:06;2.20;;;1.10;;
50547;SDS011;38013;48.810;8.818;2022-11-20T04:48:31;2.00;;;1.05;;
50547;SDS011;38013;48.810;8.818;2022-11-20T04:50:57;2.40;;;1.00;;
50547;SDS011;38013;48.810;8.818;2022-11-20T04:53:28;2.13;;;1.20;;
50547;SDS011;38013;48.810;8.818;2022-11-20T04:55:58;2.60;;;0.90;;
50547;SDS011;38013;48.810;8.818;2022-11-20T04:58:29;2.88;;;0.90;;
50547;SDS011;38013;48.810;8.818;2022-11-20T05:01:05;3.35;;;0.80;;
50547;SDS011;38013;48.810;8.818;2022-11-20T05:03:47;2.03;;;1.00;;
50547;SDS011;38013;48.810;8.818;2022-11-20T05:06:14;2.58;;;1.00;;
50547;SDS011;38013;48.810;8.818;2022-11-20T05:08:42;2.00;;;1.00;;
50547;SDS011;38013;48.810;8.818;2022-11-20T05:11:12;3.95;;;1.25;;
50547;SDS011;38013;48.810;8.818;2022-11-20T05:13:42;2.67;;;0.98;;
50547;SDS011;38013;48.810;8.818;2022-11-20T05:16:11;1.90;;;0.88;;
50547;SDS011;38013;48.810;8.818;2022-11-20T05:18:39;2.63;;;1.00;;
50547;SDS011;38013;48.810;8.818;2022-11-20T05:21:07;4.10;;;0.95;;
50547;SDS011;38013;48.810;8.818;2022-11-20T05:23:34;1.90;;;1.00;;
50547;SDS011;38013;48.810;8.818;2022-11-20T05:26:00;2.78;;;1.00;;
50547;SDS011;38013;48.810;8.818;2022-11-20T05:28:26;2.17;;;0.80;;
50547;SDS011;38013;48.810;8.818;2022-11-20T05:30:54;1.23;;;0.73;;
50547;SDS011;38013;48.810;8.818;2022-11-20T05:33:20;1.85;;;0.80;;
50547;SDS011;38013;48.810;8.818;2022-11-20T05:35:46;2.35;;;0.82;;
50547;SDS011;38013;48.810;8.818;2022-11-20T05:38:13;1.80;;;0.77;;
50547;SDS011;38013;48.810;8.818;2022-11-20T05:40:39;2.97;;;1.00;;
50547;SDS011;38013;48.810;8.818;2022-11-20T05:43:04;2.50;;;0.90;;
50547;SDS011;38013;48.810;8.818;2022-11-20T05:45:30;1.33;;;0.68;;
50547;SDS011;38013;48.810;8.818;2022-11-20T05:47:59;3.58;;;0.80;;
50547;SDS011;38013;48.810;8.818;2022-11-20T05:50:26;2.63;;;0.75;;
50547;SDS011;38013;48.810;8.818;2022-11-20T05:52:53;1.40;;;0.57;;
50547;SDS011;38013;48.810;8.818;2022-11-20T05:55:18;3.50;;;0.75;;
50547;SDS011;38013;48.810;8.818;2022-11-20T05:57:44;1.25;;;0.60;;
50547;SDS011;38013;48.810;8.818;2022-11-20T06:00:10;1.23;;;0.70;;
50547;SDS011;38013;48.810;8.818;2022-11-20T06:02:36;1.33;;;0.70;;
50547;SDS011;38013;48.810;8.818;2022-11-20T06:05:02;2.30;;;0.60;;
50547;SDS011;38013;48.810;8.818;2022-11-20T06:07:28;1.45;;;0.65;;
50547;SDS011;38013;48.810;8.818;2022-11-20T06:09:54;2.05;;;0.60;;
50547;SDS011;38013;48.810;8.818;2022-11-20T06:12:20;0.93;;;0.60;;
50547;SDS011;38013;48.810;8.818;2022-11-20T06:14:45;1.58;;;0.60;;
50547;SDS011;38013;48.810;8.818;2022-11-20T06:17:11;1.30;;;0.50;;
50547;SDS011;38013;48.810;8.818;2022-11-20T06:19:37;0.38;;;0.35;;
50547;SDS011;38013;48.810;8.818;2022-11-20T06:22:02;1.33;;;0.60;;
50547;SDS011;38013;48.810;8.818;2022-11-20T06:24:28;1.85;;;0.85;;
50547;SDS011;38013;48.810;8.818;2022-11-20T06:26:54;1.08;;;0.65;;
50547;SDS011;38013;48.810;8.818;2022-11-20T06:29:20;1.42;;;0.70;;
50547;SDS011;38013;48.810;8.818;2022-11-20T06:31:45;2.60;;;0.80;;
50547;SDS011;38013;48.810;8.818;2022-11-20T06:34:11;2.13;;;0.93;;
50547;SDS011;38013;48.810;8.818;2022-11-20T06:36:37;2.05;;;0.68;;
50547;SDS011;38013;48.810;8.818;2022-11-20T06:39:02;1.60;;;0.50;;
50547;SDS011;38013;48.810;8.818;2022-11-20T06:41:28;1.20;;;0.68;;
50547;SDS011;38013;48.810;8.818;2022-11-20T06:43:54;1.38;;;0.70;;
50547;SDS011;38013;48.810;8.818;2022-11-20T06:46:20;1.50;;;0.70;;
50547;SDS011;38013;48.810;8.818;2022-11-20T06:48:46;2.83;;;0.75;;
50547;SDS011;38013;48.810;8.818;2022-11-20T06:51:13;2.13;;;0.70;;
50547;SDS011;38013;48.810;8.818;2022-11-20T06:53:39;2.75;;;0.65;;
50547;SDS011;38013;48.810;8.818;2022-11-20T06:56:05;1.13;;;0.70;;
50547;SDS011;38013;48.810;8.818;2022-11-20T06:58:32;2.55;;;0.70;;
50547;SDS011;38013;48.810;8.818;2022-11-20T07:00:59;1.05;;;0.70;;
50547;SDS011;38013;48.810;8.818;2022-11-20T07:03:31;3.10;;;0.70;;
50547;SDS011;38013;48.810;8.818;2022-11-20T07:05:57;1.75;;;0.80;;
50547;SDS011;38013;48.810;8.818;2022-11-20T07:08:25;1.35;;;0.70;;
50547;SDS011;38013;48.810;8.818;2022-11-20T07:10:51;1.38;;;0.63;;
50547;SDS011;38013;48.810;8.818;2022-11-20T07:13:17;2.20;;;0.80;;
50547;SDS011;38013;48.810;8.818;2022-11-20T07:15:42;1.77;;;0.60;;
50547;SDS011;38013;48.810;8.818;2022-11-20T07:18:08;1.33;;;0.60;;
50547;SDS011;38013;48.810;8.818;2022-11-20T07:20:34;1.52;;;0.50;;
50547;SDS011;38013;48.810;8.818;2022-11-20T07:23:00;1.15;;;0.70;;
50547;SDS011;38013;48.810;8.818;2022-11-20T07:25:26;1.73;;;0.63;;
50547;SDS011;38013;48.810;8.818;2022-11-20T07:27:53;2.38;;;0.80;;
50547;SDS011;38013;48.810;8.818;2022-11-20T07:30:23;1.35;;;0.80;;
50547;SDS011;38013;48.810;8.818;2022-11-20T07:32:53;1.35;;;0.77;;
50547;SDS011;38013;48.810;8.818;2022-11-20T07:35:20;4.80;;;0.88;;
50547;SDS011;38013;48.810;8.818;2022-11-20T07:37:47;2.20;;;0.65;;
50547;SDS011;38013;48.810;8.818;2022-11-20T07:40:13;0.90;;;0.55;;
50547;SDS011;38013;48.810;8.818;2022-11-20T07:42:53;1.73;;;0.80;;
50547;SDS011;38013;48.810;8.818;2022-11-20T07:45:20;1.40;;;0.70;;
50547;SDS011;38013;48.810;8.818;2022-11-20T07:47:48;1.35;;;0.60;;
50547;SDS011;38013;48.810;8.818;2022-11-20T07:50:14;0.80;;;0.50;;
50547;SDS011;38013;48.810;8.818;2022-11-20T07:52:40;1.08;;;0.52;;
50547;SDS011;38013;48.810;8.818;2022-11-20T07:55:06;0.68;;;0.47;;
50547;SDS011;38013;48.810;8.818;2022-11-20T07:57:33;0.63;;;0.50;;
50547;SDS011;38013;48.810;8.818;2022-11-20T07:59:59;1.00;;;0.50;;
50547;SDS011;38013;48.810;8.818;2022-11-20T08:02:24;1.05;;;0.55;;
50547;SDS011;38013;48.810;8.818;2022-11-20T08:04:50;0.60;;;0.40;;
50547;SDS011;38013;48.810;8.818;2022-11-20T08:07:16;2.70;;;0.50;;
50547;SDS011;38013;48.810;8.818;2022-11-20T08:09:42;0.95;;;0.50;;
50547;SDS011;38013;48.810;8.818;2022-11-20T08:12:07;1.17;;;0.60;;
50547;SDS011;38013;48.810;8.818;2022-11-20T08:15:00;1.00;;;0.50;;
50547;SDS011;38013;48.810;8.818;2022-11-20T08:17:26;0.70;;;0.50;;
50547;SDS011;38013;48.810;8.818;2022-11-20T08:19:51;0.80;;;0.47;;
50547;SDS011;38013;48.810;8.818;2022-11-20T08:22:17;0.82;;;0.50;;
50547;SDS011;38013;48.810;8.818;2022-11-20T08:24:43;1.48;;;0.60;;
50547;SDS011;38013;48.810;8.818;2022-11-20T08:27:09;1.10;;;0.50;;
50547;SDS011;38013;48.810;8.818;2022-11-20T08:29:34;1.17;;;0.40;;
50547;SDS011;38013;48.810;8.818;2022-11-20T08:32:00;1.42;;;0.43;;
50547;SDS011;38013;48.810;8.818;2022-11-20T08:34:26;1.67;;;0.52;;
50547;SDS011;38013;48.810;8.818;2022-11-20T08:36:51;2.20;;;0.65;;
50547;SDS011;38013;48.810;8.818;2022-11-20T08:39:17;0.68;;;0.45;;
50547;SDS011;38013;48.810;8.818;2022-11-20T08:41:43;1.02;;;0.47;;
50547;SDS011;38013;48.810;8.818;2022-11-20T08:44:09;2.88;;;0.50;;
50547;SDS011;38013;48.810;8.818;2022-11-20T08:46:38;1.38;;;0.57;;
50547;SDS011;38013;48.810;8.818;2022-11-20T08:49:06;0.85;;;0.40;;
50547;SDS011;38013;48.810;8.818;2022-11-20T08:51:35;0.98;;;0.50;;
50547;SDS011;38013;48.810;8.818;2022-11-20T08:54:01;1.30;;;0.50;;
50547;SDS011;38013;48.810;8.818;2022-11-20T08:56:28;1.00;;;0.40;;
50547;SDS011;38013;48.810;8.818;2022-11-20T08:58:54;0.40;;;0.40;;
50547;SDS011;38013;48.810;8.818;2022-11-20T09:01:20;1.05;;;0.60;;
50547;SDS011;38013;48.810;8.818;2022-11-20T09:03:47;1.38;;;0.60;;
50547;SDS011;38013;48.810;8.818;2022-11-20T09:06:13;0.70;;;0.50;;
50547;SDS011;38013;48.810;8.818;2022-11-20T09:08:39;1.23;;;0.63;;
50547;SDS011;38013;48.810;8.818;2022-11-20T09:11:05;1.52;;;0.50;;
50547;SDS011;38013;48.810;8.818;2022-11-20T09:13:32;1.02;;;0.60;;
50547;SDS011;38013;48.810;8.818;2022-11-20T09:16:00;0.68;;;0.50;;
50547;SDS011;38013;48.810;8.818;2022-11-20T09:18:32;1.38;;;0.70;;
50547;SDS011;38013;48.810;8.818;2022-11-20T09:21:01;2.40;;;0.70;;
50547;SDS011;38013;48.810;8.818;2022-11-20T09:23:31;2.60;;;0.90;;
50547;SDS011;38013;48.810;8.818;2022-11-20T09:26:03;1.75;;;0.70;;
50547;SDS011;38013;48.810;8.818;2022-11-20T09:28:31;1.88;;;0.98;;
50547;SDS011;38013;48.810;8.818;2022-11-20T09:30:57;2.00;;;0.85;;
50547;SDS011;38013;48.810;8.818;2022-11-20T09:33:24;1.55;;;0.77;;
50547;SDS011;38013;48.810;8.818;2022-11-20T09:35:50;1.65;;;0.82;;
50547;SDS011;38013;48.810;8.818;2022-11-20T09:38:16;3.17;;;1.23;;
50547;SDS011;38013;48.810;8.818;2022-11-20T09:40:57;3.03;;;1.02;;
50547;SDS011;38013;48.810;8.818;2022-11-20T09:46:40;2.65;;;0.98;;
50547;SDS011;38013;48.810;8.818;2022-11-20T09:52:22;2.10;;;0.95;;
50547;SDS011;38013;48.810;8.818;2022-11-20T09:55:10;1.63;;;0.82;;
50547;SDS011;38013;48.810;8.818;2022-11-20T09:57:39;3.80;;;0.90;;
50547;SDS011;38013;48.810;8.818;2022-11-20T10:00:10;1.30;;;0.70;;
50547;SDS011;38013;48.810;8.818;2022-11-20T10:03:01;2.65;;;0.70;;
50547;SDS011;38013;48.810;8.818;2022-11-20T10:06:15;0.75;;;0.60;;
50547;SDS011;38013;48.810;8.818;2022-11-20T10:09:01;2.25;;;0.90;;
50547;SDS011;38013;48.810;8.818;2022-11-20T10:11:42;1.35;;;0.70;;
50547;SDS011;38013;48.810;8.818;2022-11-20T10:14:46;1.55;;;0.70;;
50547;SDS011;38013;48.810;8.818;2022-11-20T10:29:17;1.40;;;0.63;;
50547;SDS011;38013;48.810;8.818;2022-11-20T10:31:47;3.47;;;0.90;;
50547;SDS011;38013;48.810;8.818;2022-11-20T10:37:00;2.58;;;1.00;;
50547;SDS011;38013;48.810;8.818;2022-11-20T10:42:40;3.03;;;1.02;;
50547;SDS011;38013;48.810;8.818;2022-11-20T10:45:55;2.47;;;1.10;;
50547;SDS011;38013;48.810;8.818;2022-11-20T10:48:20;2.78;;;0.98;;
50547;SDS011;38013;48.810;8.818;2022-11-20T10:51:03;3.00;;;1.00;;
50547;SDS011;38013;48.810;8.818;2022-11-20T11:00:05;3.35;;;1.25;;
50547;SDS011;38013;48.810;8.818;2022-11-20T11:05:10;6.70;;;1.63;;
50547;SDS011;38013;48.810;8.818;2022-11-20T11:07:49;3.25;;;1.20;;
50547;SDS011;38013;48.810;8.818;2022-11-20T11:13:19;6.03;;;0.93;;
50547;SDS011;38013;48.810;8.818;2022-11-20T11:15:53;4.45;;;1.00;;
50547;SDS011;38013;48.810;8.818;2022-11-20T11:20:59;4.38;;;1.30;;
50547;SDS011;38013;48.810;8.818;2022-11-20T11:26:02;2.17;;;0.95;;
50547;SDS011;38013;48.810;8.818;2022-11-20T11:28:31;4.18;;;0.90;;
50547;SDS011;38013;48.810;8.818;2022-11-20T11:30:57;3.42;;;0.80;;
50547;SDS011;38013;48.810;8.818;2022-11-20T11:33:24;1.77;;;0.90;;
50547;SDS011;38013;48.810;8.818;2022-11-20T11:35:56;3.50;;;0.75;;
50547;SDS011;38013;48.810;8.818;2022-11-20T11:38:30;2.78;;;1.00;;
50547;SDS011;38013;48.810;8.818;2022-11-20T11:41:19;4.45;;;0.90;;
50547;SDS011;38013;48.810;8.818;2022-11-20T11:43:55;3.58;;;0.73;;
50547;SDS011;38013;48.810;8.818;2022-11-20T11:46:54;2.75;;;0.80;;
50547;SDS011;38013;48.810;8.818;2022-11-20T11:49:21;2.88;;;0.90;;
50547;SDS011;38013;48.810;8.818;2022-11-20T11:52:04;2.45;;;0.57;;
50547;SDS011;38013;48.810;8.818;2022-11-20T12:00:20;4.75;;;0.70;;
50547;SDS011;38013;48.810;8.818;2022-11-20T12:05:36;2.47;;;0.73;;
50547;SDS011;38013;48.810;8.818;2022-11-20T12:08:12;2.17;;;0.80;;
50547;SDS011;38013;48.810;8.818;2022-11-20T12:11:00;2.45;;;0.70;;
50547;SDS011;38013;48.810;8.818;2022-11-20T12:13:44;2.33;;;0.75;;
50547;SDS011;38013;48.810;8.818;2022-11-20T12:16:20;2.10;;;0.70;;
50547;SDS011;38013;48.810;8.818;2022-11-20T12:18:50;3.30;;;0.70;;
50547;SDS011;38013;48.810;8.818;2022-11-20T12:26:55;2.50;;;0.68;;
50547;SDS011;38013;48.810;8.818;2022-11-20T12:35:29;3.10;;;0.82;;
50547;SDS011;38013;48.810;8.818;2022-11-20T12:41:48;2.97;;;0.90;;
50547;SDS011;38013;48.810;8.818;2022-11-20T12:45:02;1.73;;;0.70;;
50547;SDS011;38013;48.810;8.818;2022-11-20T13:05:36;2.75;;;0.60;;
50547;SDS011;38013;48.810;8.818;2022-11-20T13:08:55;4.47;;;1.00;;
50547;SDS011;38013;48.810;8.818;2022-11-20T13:11:07;2.22;;;0.70;;
50547;SDS011;38013;48.810;8.818;2022-11-20T13:16:47;2.65;;;0.77;;
50547;SDS011;38013;48.810;8.818;2022-11-20T13:19:29;2.92;;;0.60;;
50547;SDS011;38013;48.810;8.818;2022-11-20T13:21:55;2.00;;;0.75;;
50547;SDS011;38013;48.810;8.818;2022-11-20T13:26:59;2.20;;;0.80;;
50547;SDS011;38013;48.810;8.818;2022-11-20T13:32:47;4.53;;;0.90;;
50547;SDS011;38013;48.810;8.818;2022-11-20T13:38:40;1.92;;;0.60;;
50547;SDS011;38013;48.810;8.818;2022-11-20T13:41:22;3.95;;;0.90;;
50547;SDS011;38013;48.810;8.818;2022-11-20T13:46:39;1.42;;;0.57;;
50547;SDS011;38013;48.810;8.818;2022-11-20T13:49:10;3.40;;;0.75;;
50547;SDS011;38013;48.810;8.818;2022-11-20T13:51:51;2.08;;;0.60;;
50547;SDS011;38013;48.810;8.818;2022-11-20T13:55:20;3.30;;;0.60;;
50547;SDS011;38013;48.810;8.818;2022-11-20T14:00:27;1.98;;;0.70;;
50547;SDS011;38013;48.810;8.818;2022-11-20T14:03:07;2.63;;;0.80;;
50547;SDS011;38013;48.810;8.818;2022-11-20T14:05:40;3.88;;;0.70;;
50547;SDS011;38013;48.810;8.818;2022-11-20T14:08:23;1.90;;;0.65;;
50547;SDS011;38013;48.810;8.818;2022-11-20T14:14:01;3.97;;;0.68;;
50547;SDS011;38013;48.810;8.818;2022-11-20T14:16:31;1.63;;;0.70;;
50547;SDS011;38013;48.810;8.818;2022-11-20T14:21:45;1.52;;;0.60;;
50547;SDS011;38013;48.810;8.818;2022-11-20T14:24:18;3.65;;;0.70;;
50547;SDS011;38013;48.810;8.818;2022-11-20T14:26:49;1.17;;;0.55;;
50547;SDS011;38013;48.810;8.818;2022-11-20T14:29:17;3.25;;;0.60;;
50547;SDS011;38013;48.810;8.818;2022-11-20T14:31:46;2.67;;;0.63;;
50547;SDS011;38013;48.810;8.818;2022-11-20T14:34:22;1.73;;;0.47;;
50547;SDS011;38013;48.810;8.818;2022-11-20T14:36:52;3.20;;;0.70;;
50547;SDS011;38013;48.810;8.818;2022-11-20T14:39:40;2.88;;;0.60;;
50547;SDS011;38013;48.810;8.818;2022-11-20T14:42:14;2.00;;;0.60;;
50547;SDS011;38013;48.810;8.818;2022-11-20T14:44:45;1.63;;;0.50;;
50547;SDS011;38013;48.810;8.818;2022-11-20T14:47:12;2.42;;;0.70;;
50547;SDS011;38013;48.810;8.818;2022-11-20T14:49:42;2.05;;;0.70;;
50547;SDS011;38013;48.810;8.818;2022-11-20T14:52:13;2.08;;;0.70;;
50547;SDS011;38013;48.810;8.818;2022-11-20T14:54:46;2.08;;;0.60;;
50547;SDS011;38013;48.810;8.818;2022-11-20T14:57:28;8.18;;;0.77;;
50547;SDS011;38013;48.810;8.818;2022-11-20T15:00:19;4.72;;;0.98;;
50547;SDS011;38013;48.810;8.818;2022-11-20T15:02:47;6.60;;;0.82;;
50547;SDS011;38013;48.810;8.818;2022-11-20T15:05:15;1.98;;;0.60;;
50547;SDS011;38013;48.810;8.818;2022-11-20T15:07:47;1.48;;;0.60;;
50547;SDS011;38013;48.810;8.818;2022-11-20T15:10:26;2.17;;;0.50;;
50547;SDS011;38013;48.810;8.818;2022-11-20T15:12:57;3.40;;;0.60;;
50547;SDS011;38013;48.810;8.818;2022-11-20T15:17:53;2.13;;;0.60;;
50547;SDS011;38013;48.810;8.818;2022-11-20T15:20:19;2.10;;;0.70;;
50547;SDS011;38013;48.810;8.818;2022-11-20T15:22:49;2.30;;;0.63;;
50547;SDS011;38013;48.810;8.818;2022-11-20T15:25:15;5.20;;;0.80;;
50547;SDS011;38013;48.810;8.818;2022-11-20T15:27:43;2.30;;;0.73;;
50547;SDS011;38013;48.810;8.818;2022-11-20T15:30:17;3.75;;;0.75;;
50547;SDS011;38013;48.810;8.818;2022-11-20T15:32:45;2.50;;;0.68;;
50547;SDS011;38013;48.810;8.818;2022-11-20T15:35:12;2.53;;;0.80;;
50547;SDS011;38013;48.810;8.818;2022-11-20T15:37:39;3.95;;;1.00;;
50547;SDS011;38013;48.810;8.818;2022-11-20T15:40:06;2.85;;;1.00;;
50547;SDS011;38013;48.810;8.818;2022-11-20T15:42:33;2.85;;;0.70;;
50547;SDS011;38013;48.810;8.818;2022-11-20T15:44:59;2.70;;;0.50;;
50547;SDS011;38013;48.810;8.818;2022-11-20T15:47:27;1.73;;;0.60;;
50547;SDS011;38013;48.810;8.818;2022-11-20T15:49:59;3.17;;;0.80;;
50547;SDS011;38013;48.810;8.818;2022-11-20T15:52:25;3.10;;;0.80;;
50547;SDS011;38013;48.810;8.818;2022-11-20T15:54:51;2.28;;;0.65;;
50547;SDS011;38013;48.810;8.818;2022-11-20T15:57:16;2.53;;;0.80;;
50547;SDS011;38013;48.810;8.818;2022-11-20T15:59:42;2.85;;;0.85;;
50547;SDS011;38013;48.810;8.818;2022-11-20T16:02:09;2.25;;;0.82;;
50547;SDS011;38013;48.810;8.818;2022-11-20T16:04:39;4.47;;;1.10;;
50547;SDS011;38013;48.810;8.818;2022-11-20T16:07:05;3.70;;;1.10;;
50547;SDS011;38013;48.810;8.818;2022-11-20T16:09:31;4.20;;;1.00;;
50547;SDS011;38013;48.810;8.818;2022-11-20T16:11:57;2.85;;;1.10;;
50547;SDS011;38013;48.810;8.818;2022-11-20T16:14:24;2.58;;;0.75;;
50547;SDS011;38013;48.810;8.818;2022-11-20T16:17:10;2.35;;;0.80;;
50547;SDS011;38013;48.810;8.818;2022-11-20T16:19:36;2.90;;;1.00;;
50547;SDS011;38013;48.810;8.818;2022-11-20T16:22:01;1.88;;;0.80;;
50547;SDS011;38013;48.810;8.818;2022-11-20T16:24:28;2.63;;;0.88;;
50547;SDS011;38013;48.810;8.818;2022-11-20T16:26:54;3.47;;;1.00;;
50547;SDS011;38013;48.810;8.818;2022-11-20T16:29:19;3.05;;;1.17;;
50547;SDS011;38013;48.810;8.818;2022-11-20T16:31:46;5.95;;;1.00;;
50547;SDS011;38013;48.810;8.818;2022-11-20T16:34:11;3.25;;;1.00;;
50547;SDS011;38013;48.810;8.818;2022-11-20T16:36:39;4.07;;;0.80;;
50547;SDS011;38013;48.810;8.818;2022-11-20T16:39:06;2.78;;;0.80;;
50547;SDS011;38013;48.810;8.818;2022-11-20T16:41:33;3.47;;;0.90;;
50547;SDS011;38013;48.810;8.818;2022-11-20T16:44:00;2.17;;;1.08;;
50547;SDS011;38013;48.810;8.818;2022-11-20T16:46:28;2.50;;;1.00;;
50547;SDS011;38013;48.810;8.818;2022-11-20T16:48:57;4.15;;;1.17;;
50547;SDS011;38013;48.810;8.818;2022-11-20T16:51:31;2.45;;;1.00;;
50547;SDS011;38013;48.810;8.818;2022-11-20T16:54:01;3.25;;;1.02;;
50547;SDS011;38013;48.810;8.818;2022-11-20T16:56:31;4.03;;;1.40;;
50547;SDS011;38013;48.810;8.818;2022-11-20T16:58:58;2.72;;;1.02;;
50547;SDS011;38013;48.810;8.818;2022-11-20T17:01:26;2.80;;;1.13;;
50547;SDS011;38013;48.810;8.818;2022-11-20T17:04:03;5.15;;;1.73;;